Sacramento, California
Traffic Map
Current Weather Conditions
Sacramento, California
Clear
Clear
51°
Feels Like: 51°
Wind Chill: 51° Ceiling: Unl
Heat Index: 51° Visibility: 8mi
Dew Point: 45° Wind: 3mph
Humidity: 80% Direction: 350° (N)
Pressure: 30.04in Gusts: 0mph
Raw Report DataKSAC 160353Z 35003KT 8SM CLR 11/07 A3004 RMK AO2 SLP173 T01060072
Traffic Incident Summary
Active as of:
Severity:
Category:
InformationThere was an issue retrieving the traffic information for this location. Please try a different location or try again shortly.
Advertisements